sensor_id;sensor_type;location;lat;lon;timestamp;temperature;humidity
14031;DHT22;7090;49.436;8.490;2023-03-20T00:01:13;9.70;99.90
14031;DHT22;7090;49.436;8.490;2023-03-20T00:03:39;9.60;99.90
14031;DHT22;7090;49.436;8.490;2023-03-20T00:06:07;9.70;99.90
14031;DHT22;7090;49.436;8.490;2023-03-20T00:08:35;9.70;99.90
14031;DHT22;7090;49.436;8.490;2023-03-20T00:11:01;9.80;99.90
14031;DHT22;7090;49.436;8.490;2023-03-20T00:13:26;9.70;99.90
14031;DHT22;7090;49.436;8.490;2023-03-20T00:15:52;9.70;99.90
14031;DHT22;7090;49.436;8.490;2023-03-20T00:18:21;9.70;99.90
14031;DHT22;7090;49.436;8.490;2023-03-20T00:20:49;9.70;99.90
14031;DHT22;7090;49.436;8.490;2023-03-20T00:23:16;9.70;99.90
14031;DHT22;7090;49.436;8.490;2023-03-20T00:25:43;9.70;99.90
14031;DHT22;7090;49.436;8.490;2023-03-20T00:28:36;9.80;99.90
14031;DHT22;7090;49.436;8.490;2023-03-20T00:31:04;9.80;99.90
14031;DHT22;7090;49.436;8.490;2023-03-20T00:33:31;9.80;99.90
14031;DHT22;7090;49.436;8.490;2023-03-20T00:35:56;9.80;99.90
14031;DHT22;7090;49.436;8.490;2023-03-20T00:38:23;9.80;99.90
14031;DHT22;7090;49.436;8.490;2023-03-20T00:40:49;9.90;99.90
14031;DHT22;7090;49.436;8.490;2023-03-20T00:43:15;9.90;99.90
14031;DHT22;7090;49.436;8.490;2023-03-20T00:45:43;9.90;99.90
14031;DHT22;7090;49.436;8.490;2023-03-20T00:48:13;9.90;99.90
14031;DHT22;7090;49.436;8.490;2023-03-20T00:50:40;9.90;99.90
14031;DHT22;7090;49.436;8.490;2023-03-20T00:53:09;9.90;99.90
14031;DHT22;7090;49.436;8.490;2023-03-20T00:55:35;9.90;99.90
14031;DHT22;7090;49.436;8.490;2023-03-20T00:58:03;9.90;99.90
14031;DHT22;7090;49.436;8.490;2023-03-20T01:00:40;10.10;99.90
14031;DHT22;7090;49.436;8.490;2023-03-20T01:03:18;10.00;99.90
14031;DHT22;7090;49.436;8.490;2023-03-20T01:05:44;10.00;99.90
14031;DHT22;7090;49.436;8.490;2023-03-20T01:08:24;10.00;99.90
14031;DHT22;7090;49.436;8.490;2023-03-20T01:10:52;10.00;99.90
14031;DHT22;7090;49.436;8.490;2023-03-20T01:13:23;10.00;99.90
14031;DHT22;7090;49.436;8.490;2023-03-20T01:15:50;10.00;99.90
14031;DHT22;7090;49.436;8.490;2023-03-20T01:18:18;10.00;99.90
14031;DHT22;7090;49.436;8.490;2023-03-20T01:20:43;10.00;99.90
14031;DHT22;7090;49.436;8.490;2023-03-20T01:23:10;10.00;99.90
14031;DHT22;7090;49.436;8.490;2023-03-20T01:25:36;10.00;99.90
14031;DHT22;7090;49.436;8.490;2023-03-20T01:28:03;10.00;99.90
14031;DHT22;7090;49.436;8.490;2023-03-20T01:30:36;10.00;99.90
14031;DHT22;7090;49.436;8.490;2023-03-20T01:33:05;10.00;99.90
14031;DHT22;7090;49.436;8.490;2023-03-20T01:35:31;10.00;99.90
14031;DHT22;7090;49.436;8.490;2023-03-20T01:37:56;10.00;99.90
14031;DHT22;7090;49.436;8.490;2023-03-20T01:42:47;10.00;99.90
14031;DHT22;7090;49.436;8.490;2023-03-20T01:45:20;10.00;99.90
14031;DHT22;7090;49.436;8.490;2023-03-20T01:47:46;10.00;99.90
14031;DHT22;7090;49.436;8.490;2023-03-20T01:52:49;10.00;99.90
14031;DHT22;7090;49.436;8.490;2023-03-20T01:55:16;10.00;99.90
14031;DHT22;7090;49.436;8.490;2023-03-20T01:57:42;10.00;99.90
14031;DHT22;7090;49.436;8.490;2023-03-20T02:00:10;10.00;99.90
14031;DHT22;7090;49.436;8.490;2023-03-20T02:02:36;10.00;99.90
14031;DHT22;7090;49.436;8.490;2023-03-20T02:05:07;9.90;99.90
14031;DHT22;7090;49.436;8.490;2023-03-20T02:07:35;9.90;99.90
14031;DHT22;7090;49.436;8.490;2023-03-20T02:10:10;9.60;99.90
14031;DHT22;7090;49.436;8.490;2023-03-20T02:12:37;9.90;99.90
14031;DHT22;7090;49.436;8.490;2023-03-20T02:15:04;9.90;99.90
14031;DHT22;7090;49.436;8.490;2023-03-20T02:17:31;9.90;99.90
14031;DHT22;7090;49.436;8.490;2023-03-20T02:40:32;9.80;99.90
14031;DHT22;7090;49.436;8.490;2023-03-20T02:43:38;9.80;99.90
14031;DHT22;7090;49.436;8.490;2023-03-20T02:46:24;9.80;99.90
14031;DHT22;7090;49.436;8.490;2023-03-20T02:51:40;9.80;99.90
14031;DHT22;7090;49.436;8.490;2023-03-20T02:57:10;9.80;99.90
14031;DHT22;7090;49.436;8.490;2023-03-20T03:00:00;9.80;99.90
14031;DHT22;7090;49.436;8.490;2023-03-20T03:02:46;9.80;99.90
14031;DHT22;7090;49.436;8.490;2023-03-20T03:05:19;9.90;99.90
14031;DHT22;7090;49.436;8.490;2023-03-20T03:07:47;9.90;99.90
14031;DHT22;7090;49.436;8.490;2023-03-20T03:10:18;9.90;99.90
14031;DHT22;7090;49.436;8.490;2023-03-20T03:12:45;9.90;99.90
14031;DHT22;7090;49.436;8.490;2023-03-20T03:15:20;9.80;99.90
14031;DHT22;7090;49.436;8.490;2023-03-20T03:17:48;9.80;99.90
14031;DHT22;7090;49.436;8.490;2023-03-20T03:20:29;9.80;99.90
14031;DHT22;7090;49.436;8.490;2023-03-20T03:22:57;9.80;99.90
14031;DHT22;7090;49.436;8.490;2023-03-20T03:25:25;9.80;99.90
14031;DHT22;7090;49.436;8.490;2023-03-20T03:30:43;9.80;99.90
14031;DHT22;7090;49.436;8.490;2023-03-20T03:33:27;9.80;99.90
14031;DHT22;7090;49.436;8.490;2023-03-20T03:36:11;9.70;99.90
14031;DHT22;7090;49.436;8.490;2023-03-20T03:41:32;9.70;99.90
14031;DHT22;7090;49.436;8.490;2023-03-20T03:47:05;9.70;99.90
14031;DHT22;7090;49.436;8.490;2023-03-20T03:49:38;9.60;99.90
14031;DHT22;7090;49.436;8.490;2023-03-20T03:52:09;9.70;99.90
14031;DHT22;7090;49.436;8.490;2023-03-20T03:54:55;9.70;99.90
14031;DHT22;7090;49.436;8.490;2023-03-20T03:57:33;9.70;99.90
14031;DHT22;7090;49.436;8.490;2023-03-20T04:00:00;9.70;99.90
14031;DHT22;7090;49.436;8.490;2023-03-20T04:02:27;9.80;99.90
14031;DHT22;7090;49.436;8.490;2023-03-20T04:04:54;9.60;99.90
14031;DHT22;7090;49.436;8.490;2023-03-20T04:07:20;9.70;99.90
14031;DHT22;7090;49.436;8.490;2023-03-20T04:09:46;9.70;99.90
14031;DHT22;7090;49.436;8.490;2023-03-20T04:15:00;9.70;99.90
14031;DHT22;7090;49.436;8.490;2023-03-20T04:17:26;9.60;99.90
14031;DHT22;7090;49.436;8.490;2023-03-20T04:19:51;9.60;99.90
14031;DHT22;7090;49.436;8.490;2023-03-20T04:22:17;9.70;99.90
14031;DHT22;7090;49.436;8.490;2023-03-20T04:24:42;9.70;99.90
14031;DHT22;7090;49.436;8.490;2023-03-20T04:27:08;9.70;99.90
14031;DHT22;7090;49.436;8.490;2023-03-20T04:29:33;9.70;99.90
14031;DHT22;7090;49.436;8.490;2023-03-20T04:31:59;9.70;99.90
14031;DHT22;7090;49.436;8.490;2023-03-20T04:34:25;9.70;99.90
14031;DHT22;7090;49.436;8.490;2023-03-20T04:36:51;9.70;99.90
14031;DHT22;7090;49.436;8.490;2023-03-20T04:39:16;9.70;99.90
14031;DHT22;7090;49.436;8.490;2023-03-20T04:41:43;9.70;99.90
14031;DHT22;7090;49.436;8.490;2023-03-20T04:44:08;9.70;99.90
14031;DHT22;7090;49.436;8.490;2023-03-20T04:46:34;9.70;99.90
14031;DHT22;7090;49.436;8.490;2023-03-20T04:49:00;9.70;99.90
14031;DHT22;7090;49.436;8.490;2023-03-20T04:51:25;9.70;99.90
14031;DHT22;7090;49.436;8.490;2023-03-20T04:53:51;9.70;99.90
14031;DHT22;7090;49.436;8.490;2023-03-20T04:56:17;9.70;99.90
14031;DHT22;7090;49.436;8.490;2023-03-20T04:58:42;9.70;99.90
14031;DHT22;7090;49.436;8.490;2023-03-20T05:01:08;9.60;99.90
14031;DHT22;7090;49.436;8.490;2023-03-20T05:03:33;9.70;99.90
14031;DHT22;7090;49.436;8.490;2023-03-20T05:05:59;9.70;99.90
14031;DHT22;7090;49.436;8.490;2023-03-20T05:08:25;9.70;99.90
14031;DHT22;7090;49.436;8.490;2023-03-20T05:10:50;9.70;99.90
14031;DHT22;7090;49.436;8.490;2023-03-20T05:13:16;9.70;99.90
14031;DHT22;7090;49.436;8.490;2023-03-20T05:15:42;9.70;99.90
14031;DHT22;7090;49.436;8.490;2023-03-20T05:18:07;9.70;99.90
14031;DHT22;7090;49.436;8.490;2023-03-20T05:20:34;9.70;99.90
14031;DHT22;7090;49.436;8.490;2023-03-20T05:23:01;9.70;99.90
14031;DHT22;7090;49.436;8.490;2023-03-20T05:25:26;9.70;99.90
14031;DHT22;7090;49.436;8.490;2023-03-20T05:27:53;9.70;99.90
14031;DHT22;7090;49.436;8.490;2023-03-20T05:30:19;9.70;99.90
14031;DHT22;7090;49.436;8.490;2023-03-20T05:32:48;9.70;99.90
14031;DHT22;7090;49.436;8.490;2023-03-20T05:35:13;9.80;99.90
14031;DHT22;7090;49.436;8.490;2023-03-20T05:37:39;9.80;99.90
14031;DHT22;7090;49.436;8.490;2023-03-20T05:40:05;9.80;99.90
14031;DHT22;7090;49.436;8.490;2023-03-20T05:42:31;9.80;99.90
14031;DHT22;7090;49.436;8.490;2023-03-20T05:44:56;9.80;99.90
14031;DHT22;7090;49.436;8.490;2023-03-20T05:47:22;9.80;99.90
14031;DHT22;7090;49.436;8.490;2023-03-20T05:49:48;9.80;99.90
14031;DHT22;7090;49.436;8.490;2023-03-20T05:52:13;9.80;99.90
14031;DHT22;7090;49.436;8.490;2023-03-20T05:54:39;9.80;99.90
14031;DHT22;7090;49.436;8.490;2023-03-20T05:57:04;9.80;99.90
14031;DHT22;7090;49.436;8.490;2023-03-20T05:59:30;9.90;99.90
14031;DHT22;7090;49.436;8.490;2023-03-20T06:01:56;9.90;99.90
14031;DHT22;7090;49.436;8.490;2023-03-20T06:04:21;9.90;99.90
14031;DHT22;7090;49.436;8.490;2023-03-20T06:06:47;9.90;99.90
14031;DHT22;7090;49.436;8.490;2023-03-20T06:09:12;9.90;99.90
14031;DHT22;7090;49.436;8.490;2023-03-20T06:11:38;9.90;99.90
14031;DHT22;7090;49.436;8.490;2023-03-20T06:14:03;9.90;99.90
14031;DHT22;7090;49.436;8.490;2023-03-20T06:16:29;9.90;99.90
14031;DHT22;7090;49.436;8.490;2023-03-20T06:18:55;9.90;99.90
14031;DHT22;7090;49.436;8.490;2023-03-20T06:21:20;9.90;99.90
14031;DHT22;7090;49.436;8.490;2023-03-20T06:23:46;9.90;99.90
14031;DHT22;7090;49.436;8.490;2023-03-20T06:26:11;10.00;99.90
14031;DHT22;7090;49.436;8.490;2023-03-20T06:28:37;9.90;99.90
14031;DHT22;7090;49.436;8.490;2023-03-20T06:31:03;9.90;99.90
14031;DHT22;7090;49.436;8.490;2023-03-20T06:33:28;9.90;99.90
14031;DHT22;7090;49.436;8.490;2023-03-20T06:35:54;9.90;99.90
14031;DHT22;7090;49.436;8.490;2023-03-20T06:38:20;10.00;99.90
14031;DHT22;7090;49.436;8.490;2023-03-20T06:40:45;9.90;99.90
14031;DHT22;7090;49.436;8.490;2023-03-20T06:43:11;9.90;99.90
14031;DHT22;7090;49.436;8.490;2023-03-20T06:45:37;10.00;99.90
14031;DHT22;7090;49.436;8.490;2023-03-20T06:48:09;10.00;99.90
14031;DHT22;7090;49.436;8.490;2023-03-20T06:50:35;9.90;99.90
14031;DHT22;7090;49.436;8.490;2023-03-20T06:53:02;10.00;99.90
14031;DHT22;7090;49.436;8.490;2023-03-20T06:55:28;10.00;99.90
14031;DHT22;7090;49.436;8.490;2023-03-20T06:57:54;10.00;99.90
14031;DHT22;7090;49.436;8.490;2023-03-20T07:00:20;10.00;99.90
14031;DHT22;7090;49.436;8.490;2023-03-20T07:02:46;10.00;99.90
14031;DHT22;7090;49.436;8.490;2023-03-20T07:05:13;10.00;99.90
14031;DHT22;7090;49.436;8.490;2023-03-20T07:07:39;10.00;99.90
14031;DHT22;7090;49.436;8.490;2023-03-20T07:10:05;9.90;99.90
14031;DHT22;7090;49.436;8.490;2023-03-20T07:12:31;9.90;99.90
14031;DHT22;7090;49.436;8.490;2023-03-20T07:14:57;10.00;99.90
14031;DHT22;7090;49.436;8.490;2023-03-20T07:17:22;10.00;99.90
14031;DHT22;7090;49.436;8.490;2023-03-20T07:19:48;10.00;99.90
14031;DHT22;7090;49.436;8.490;2023-03-20T07:22:23;10.00;99.90
14031;DHT22;7090;49.436;8.490;2023-03-20T07:24:49;10.00;99.90
14031;DHT22;7090;49.436;8.490;2023-03-20T07:27:15;10.10;99.90
14031;DHT22;7090;49.436;8.490;2023-03-20T07:29:42;10.20;99.90
14031;DHT22;7090;49.436;8.490;2023-03-20T07:32:08;10.20;99.90
14031;DHT22;7090;49.436;8.490;2023-03-20T07:34:33;10.30;99.90
14031;DHT22;7090;49.436;8.490;2023-03-20T07:36:59;10.30;99.90
14031;DHT22;7090;49.436;8.490;2023-03-20T07:39:25;10.40;99.90
14031;DHT22;7090;49.436;8.490;2023-03-20T07:41:50;10.50;99.90
14031;DHT22;7090;49.436;8.490;2023-03-20T07:44:16;10.50;99.90
14031;DHT22;7090;49.436;8.490;2023-03-20T07:46:44;10.60;99.90
14031;DHT22;7090;49.436;8.490;2023-03-20T07:49:12;10.70;99.90
14031;DHT22;7090;49.436;8.490;2023-03-20T07:51:38;10.60;99.90
14031;DHT22;7090;49.436;8.490;2023-03-20T07:54:03;10.70;99.90
14031;DHT22;7090;49.436;8.490;2023-03-20T07:56:29;10.70;99.90
14031;DHT22;7090;49.436;8.490;2023-03-20T07:58:55;10.70;99.90
14031;DHT22;7090;49.436;8.490;2023-03-20T08:01:21;10.70;99.90
14031;DHT22;7090;49.436;8.490;2023-03-20T08:03:46;10.70;99.90
14031;DHT22;7090;49.436;8.490;2023-03-20T08:06:12;10.60;99.90
14031;DHT22;7090;49.436;8.490;2023-03-20T08:08:37;10.60;99.90
14031;DHT22;7090;49.436;8.490;2023-03-20T08:11:03;10.60;99.90
14031;DHT22;7090;49.436;8.490;2023-03-20T08:13:29;10.60;99.90
14031;DHT22;7090;49.436;8.490;2023-03-20T08:15:55;10.60;99.90
14031;DHT22;7090;49.436;8.490;2023-03-20T08:18:20;10.50;99.90
14031;DHT22;7090;49.436;8.490;2023-03-20T08:20:47;10.50;99.90
14031;DHT22;7090;49.436;8.490;2023-03-20T08:23:15;10.50;99.90
14031;DHT22;7090;49.436;8.490;2023-03-20T08:25:40;10.60;99.90
14031;DHT22;7090;49.436;8.490;2023-03-20T08:28:06;10.60;99.90
14031;DHT22;7090;49.436;8.490;2023-03-20T08:30:32;10.70;99.90
14031;DHT22;7090;49.436;8.490;2023-03-20T08:32:57;10.80;99.90
14031;DHT22;7090;49.436;8.490;2023-03-20T08:35:24;10.80;99.90
14031;DHT22;7090;49.436;8.490;2023-03-20T08:37:50;10.90;99.90
14031;DHT22;7090;49.436;8.490;2023-03-20T08:40:15;10.90;99.90
14031;DHT22;7090;49.436;8.490;2023-03-20T08:42:41;11.00;99.90
14031;DHT22;7090;49.436;8.490;2023-03-20T08:45:07;11.00;99.90
14031;DHT22;7090;49.436;8.490;2023-03-20T08:47:33;11.00;99.90
14031;DHT22;7090;49.436;8.490;2023-03-20T08:49:59;11.10;99.90
14031;DHT22;7090;49.436;8.490;2023-03-20T08:52:24;11.20;99.90
14031;DHT22;7090;49.436;8.490;2023-03-20T08:54:51;11.20;99.90
14031;DHT22;7090;49.436;8.490;2023-03-20T08:57:17;11.30;99.90
14031;DHT22;7090;49.436;8.490;2023-03-20T08:59:42;11.30;99.90
14031;DHT22;7090;49.436;8.490;2023-03-20T09:02:10;11.30;99.90
14031;DHT22;7090;49.436;8.490;2023-03-20T09:04:35;11.20;99.90
14031;DHT22;7090;49.436;8.490;2023-03-20T09:07:01;11.30;99.90
14031;DHT22;7090;49.436;8.490;2023-03-20T09:09:28;11.20;99.90
14031;DHT22;7090;49.436;8.490;2023-03-20T09:11:55;11.10;99.90
14031;DHT22;7090;49.436;8.490;2023-03-20T09:14:22;11.20;99.90
14031;DHT22;7090;49.436;8.490;2023-03-20T09:16:48;11.30;99.90
14031;DHT22;7090;49.436;8.490;2023-03-20T09:19:14;11.30;99.90
14031;DHT22;7090;49.436;8.490;2023-03-20T09:21:39;11.30;99.90
14031;DHT22;7090;49.436;8.490;2023-03-20T09:24:05;11.30;99.90
14031;DHT22;7090;49.436;8.490;2023-03-20T09:26:31;11.30;99.90
14031;DHT22;7090;49.436;8.490;2023-03-20T09:28:57;11.40;99.90
14031;DHT22;7090;49.436;8.490;2023-03-20T09:31:22;11.50;99.90
14031;DHT22;7090;49.436;8.490;2023-03-20T09:33:48;11.50;99.90
14031;DHT22;7090;49.436;8.490;2023-03-20T09:36:14;11.40;99.90
14031;DHT22;7090;49.436;8.490;2023-03-20T09:38:40;11.30;99.90
14031;DHT22;7090;49.436;8.490;2023-03-20T09:41:16;11.40;99.90
14031;DHT22;7090;49.436;8.490;2023-03-20T09:43:58;11.50;99.90
14031;DHT22;7090;49.436;8.490;2023-03-20T09:52:03;12.10;99.90
14031;DHT22;7090;49.436;8.490;2023-03-20T09:54:38;12.30;99.90
14031;DHT22;7090;49.436;8.490;2023-03-20T09:57:05;12.20;99.90
14031;DHT22;7090;49.436;8.490;2023-03-20T09:59:33;12.20;99.90
14031;DHT22;7090;49.436;8.490;2023-03-20T10:02:20;12.30;99.90
14031;DHT22;7090;49.436;8.490;2023-03-20T10:04:52;12.30;99.90
14031;DHT22;7090;49.436;8.490;2023-03-20T10:07:19;12.40;99.90
14031;DHT22;7090;49.436;8.490;2023-03-20T10:09:45;12.30;99.90
14031;DHT22;7090;49.436;8.490;2023-03-20T10:22:45;12.10;99.90
14031;DHT22;7090;49.436;8.490;2023-03-20T10:27:58;12.00;99.90
14031;DHT22;7090;49.436;8.490;2023-03-20T10:39:01;12.40;99.90
14031;DHT22;7090;49.436;8.490;2023-03-20T10:41:32;12.50;99.90
14031;DHT22;7090;49.436;8.490;2023-03-20T10:43:59;12.80;99.90
14031;DHT22;7090;49.436;8.490;2023-03-20T10:46:29;13.20;99.90
14031;DHT22;7090;49.436;8.490;2023-03-20T10:49:00;13.10;1.00
14031;DHT22;7090;49.436;8.490;2023-03-20T10:51:54;13.20;1.00
14031;DHT22;7090;49.436;8.490;2023-03-20T10:54:26;13.50;1.00
14031;DHT22;7090;49.436;8.490;2023-03-20T10:56:55;13.70;1.00
14031;DHT22;7090;49.436;8.490;2023-03-20T11:02:11;13.90;99.90
14031;DHT22;7090;49.436;8.490;2023-03-20T11:04:38;13.80;1.00
14031;DHT22;7090;49.436;8.490;2023-03-20T11:07:27;13.90;1.00
14031;DHT22;7090;49.436;8.490;2023-03-20T11:12:42;14.50;99.90
14031;DHT22;7090;49.436;8.490;2023-03-20T11:20:17;15.30;99.90
14031;DHT22;7090;49.436;8.490;2023-03-20T11:22:43;15.40;99.90
14031;DHT22;7090;49.436;8.490;2023-03-20T11:25:23;15.50;99.90
14031;DHT22;7090;49.436;8.490;2023-03-20T11:27:49;15.60;99.90
14031;DHT22;7090;49.436;8.490;2023-03-20T11:30:15;14.80;99.90
14031;DHT22;7090;49.436;8.490;2023-03-20T11:32:48;14.70;1.00
14031;DHT22;7090;49.436;8.490;2023-03-20T11:38:15;14.00;1.00
14031;DHT22;7090;49.436;8.490;2023-03-20T11:40:41;13.70;1.00
14031;DHT22;7090;49.436;8.490;2023-03-20T11:43:23;14.10;1.00
14031;DHT22;7090;49.436;8.490;2023-03-20T11:45:57;14.50;1.00
14031;DHT22;7090;49.436;8.490;2023-03-20T11:48:35;14.90;99.90
14031;DHT22;7090;49.436;8.490;2023-03-20T11:51:07;14.60;99.90
14031;DHT22;7090;49.436;8.490;2023-03-20T12:01:16;15.30;99.90
14031;DHT22;7090;49.436;8.490;2023-03-20T12:06:23;15.10;7.70
14031;DHT22;7090;49.436;8.490;2023-03-20T12:08:56;15.80;1.00
14031;DHT22;7090;49.436;8.490;2023-03-20T12:14:02;16.60;1.00
14031;DHT22;7090;49.436;8.490;2023-03-20T12:16:29;16.50;1.00
14031;DHT22;7090;49.436;8.490;2023-03-20T12:19:14;16.50;1.00
14031;DHT22;7090;49.436;8.490;2023-03-20T12:22:11;15.50;65.80
14031;DHT22;7090;49.436;8.490;2023-03-20T12:27:39;15.70;1.00
14031;DHT22;7090;49.436;8.490;2023-03-20T12:30:21;15.10;11.30
14031;DHT22;7090;49.436;8.490;2023-03-20T12:33:02;15.10;1.00
14031;DHT22;7090;49.436;8.490;2023-03-20T12:35:30;15.20;99.90
14031;DHT22;7090;49.436;8.490;2023-03-20T12:37:57;15.40;99.90
14031;DHT22;7090;49.436;8.490;2023-03-20T12:40:42;16.10;1.00
14031;DHT22;7090;49.436;8.490;2023-03-20T12:43:21;16.10;3.50
14031;DHT22;7090;49.436;8.490;2023-03-20T12:48:41;16.00;1.00
14031;DHT22;7090;49.436;8.490;2023-03-20T13:10:21;16.30;1.00
14031;DHT22;7090;49.436;8.490;2023-03-20T13:20:49;16.50;99.90
14031;DHT22;7090;49.436;8.490;2023-03-20T13:33:37;16.10;1.00
14031;DHT22;7090;49.436;8.490;2023-03-20T13:38:47;15.70;1.00
14031;DHT22;7090;49.436;8.490;2023-03-20T13:41:15;15.90;99.90
14031;DHT22;7090;49.436;8.490;2023-03-20T13:43:50;16.20;1.00
14031;DHT22;7090;49.436;8.490;2023-03-20T13:46:32;16.50;1.00
14031;DHT22;7090;49.436;8.490;2023-03-20T13:49:41;16.50;99.90
14031;DHT22;7090;49.436;8.490;2023-03-20T13:52:14;16.60;99.90
14031;DHT22;7090;49.436;8.490;2023-03-20T13:54:56;16.70;1.00
14031;DHT22;7090;49.436;8.490;2023-03-20T14:05:38;15.70;1.00
14031;DHT22;7090;49.436;8.490;2023-03-20T14:08:30;15.80;1.00
14031;DHT22;7090;49.436;8.490;2023-03-20T14:13:54;15.90;1.00
14031;DHT22;7090;49.436;8.490;2023-03-20T14:16:20;15.90;99.90
14031;DHT22;7090;49.436;8.490;2023-03-20T14:18:48;15.90;99.90
14031;DHT22;7090;49.436;8.490;2023-03-20T14:21:48;16.10;1.00
14031;DHT22;7090;49.436;8.490;2023-03-20T14:33:06;15.80;43.60
14031;DHT22;7090;49.436;8.490;2023-03-20T14:35:37;15.80;99.90
14031;DHT22;7090;49.436;8.490;2023-03-20T14:49:03;15.80;99.90
14031;DHT22;7090;49.436;8.490;2023-03-20T14:51:44;16.10;1.00
14031;DHT22;7090;49.436;8.490;2023-03-20T14:56:47;16.10;1.00
14031;DHT22;7090;49.436;8.490;2023-03-20T14:59:14;16.10;1.00
14031;DHT22;7090;49.436;8.490;2023-03-20T15:01:57;15.90;1.00
14031;DHT22;7090;49.436;8.490;2023-03-20T15:07:13;16.30;1.00
14031;DHT22;7090;49.436;8.490;2023-03-20T15:09:43;16.50;1.00
14031;DHT22;7090;49.436;8.490;2023-03-20T15:12:13;16.30;99.90
14031;DHT22;7090;49.436;8.490;2023-03-20T15:14:54;15.80;1.00
14031;DHT22;7090;49.436;8.490;2023-03-20T15:17:27;15.40;1.00
14031;DHT22;7090;49.436;8.490;2023-03-20T15:22:33;15.40;1.00
14031;DHT22;7090;49.436;8.490;2023-03-20T15:24:59;15.30;1.00
14031;DHT22;7090;49.436;8.490;2023-03-20T15:30:41;15.00;1.00
14031;DHT22;7090;49.436;8.490;2023-03-20T15:33:25;14.80;1.00
14031;DHT22;7090;49.436;8.490;2023-03-20T15:35:51;14.70;1.00
14031;DHT22;7090;49.436;8.490;2023-03-20T15:41:26;14.60;1.00
14031;DHT22;7090;49.436;8.490;2023-03-20T15:43:52;14.70;1.00
14031;DHT22;7090;49.436;8.490;2023-03-20T15:46:18;14.70;1.00
14031;DHT22;7090;49.436;8.490;2023-03-20T15:48:49;14.70;1.00
14031;DHT22;7090;49.436;8.490;2023-03-20T15:51:16;14.50;1.00
14031;DHT22;7090;49.436;8.490;2023-03-20T15:53:45;14.40;1.00
14031;DHT22;7090;49.436;8.490;2023-03-20T15:56:14;14.30;99.90
14031;DHT22;7090;49.436;8.490;2023-03-20T15:58:42;14.20;22.40
14031;DHT22;7090;49.436;8.490;2023-03-20T16:01:10;14.20;1.00
14031;DHT22;7090;49.436;8.490;2023-03-20T16:03:40;14.10;1.00
14031;DHT22;7090;49.436;8.490;2023-03-20T16:06:08;13.90;1.00
14031;DHT22;7090;49.436;8.490;2023-03-20T16:08:35;13.90;1.00
14031;DHT22;7090;49.436;8.490;2023-03-20T16:11:13;14.00;1.00
14031;DHT22;7090;49.436;8.490;2023-03-20T16:13:41;13.80;1.00
14031;DHT22;7090;49.436;8.490;2023-03-20T16:16:12;13.70;1.00
14031;DHT22;7090;49.436;8.490;2023-03-20T16:18:39;13.70;1.00
14031;DHT22;7090;49.436;8.490;2023-03-20T16:21:08;13.60;1.00
14031;DHT22;7090;49.436;8.490;2023-03-20T16:26:05;13.60;1.00
14031;DHT22;7090;49.436;8.490;2023-03-20T16:28:34;13.70;1.00
14031;DHT22;7090;49.436;8.490;2023-03-20T16:31:17;13.50;1.00
14031;DHT22;7090;49.436;8.490;2023-03-20T16:33:45;13.50;1.00
14031;DHT22;7090;49.436;8.490;2023-03-20T16:36:16;13.40;1.00
14031;DHT22;7090;49.436;8.490;2023-03-20T16:42:09;13.30;1.00
14031;DHT22;7090;49.436;8.490;2023-03-20T16:44:36;13.30;1.00
14031;DHT22;7090;49.436;8.490;2023-03-20T16:47:31;13.20;1.00
14031;DHT22;7090;49.436;8.490;2023-03-20T16:50:15;13.10;1.00
14031;DHT22;7090;49.436;8.490;2023-03-20T16:52:56;13.10;1.00
14031;DHT22;7090;49.436;8.490;2023-03-20T16:55:27;13.10;1.00
14031;DHT22;7090;49.436;8.490;2023-03-20T16:58:04;13.00;1.00
14031;DHT22;7090;49.436;8.490;2023-03-20T17:00:40;13.00;1.00
14031;DHT22;7090;49.436;8.490;2023-03-20T17:06:20;13.00;1.00
14031;DHT22;7090;49.436;8.490;2023-03-20T17:08:52;12.90;1.00
14031;DHT22;7090;49.436;8.490;2023-03-20T17:11:33;12.80;99.90
14031;DHT22;7090;49.436;8.490;2023-03-20T17:13:59;12.80;97.00
14031;DHT22;7090;49.436;8.490;2023-03-20T17:16:26;12.80;1.00
14031;DHT22;7090;49.436;8.490;2023-03-20T17:19:06;12.80;99.90
14031;DHT22;7090;49.436;8.490;2023-03-20T17:21:35;12.80;18.50
14031;DHT22;7090;49.436;8.490;2023-03-20T17:24:00;12.80;1.00
14031;DHT22;7090;49.436;8.490;2023-03-20T17:26:26;12.70;91.60
14031;DHT22;7090;49.436;8.490;2023-03-20T17:28:51;12.80;1.00
14031;DHT22;7090;49.436;8.490;2023-03-20T17:31:18;12.80;1.00
14031;DHT22;7090;49.436;8.490;2023-03-20T17:33:44;12.70;1.00
14031;DHT22;7090;49.436;8.490;2023-03-20T17:36:26;12.70;99.90
14031;DHT22;7090;49.436;8.490;2023-03-20T17:38:53;12.60;1.00
14031;DHT22;7090;49.436;8.490;2023-03-20T17:41:19;12.60;1.00
14031;DHT22;7090;49.436;8.490;2023-03-20T17:43:45;12.60;1.00
14031;DHT22;7090;49.436;8.490;2023-03-20T17:46:45;12.50;1.00
14031;DHT22;7090;49.436;8.490;2023-03-20T17:49:15;12.50;1.00
14031;DHT22;7090;49.436;8.490;2023-03-20T17:51:42;12.40;1.00
14031;DHT22;7090;49.436;8.490;2023-03-20T17:54:08;12.40;1.00
14031;DHT22;7090;49.436;8.490;2023-03-20T17:56:34;12.30;1.00
14031;DHT22;7090;49.436;8.490;2023-03-20T17:59:00;12.40;99.90
14031;DHT22;7090;49.436;8.490;2023-03-20T18:01:27;12.30;1.00
14031;DHT22;7090;49.436;8.490;2023-03-20T18:07:16;12.30;99.90
14031;DHT22;7090;49.436;8.490;2023-03-20T18:09:43;12.30;1.00
14031;DHT22;7090;49.436;8.490;2023-03-20T18:12:10;12.00;1.00
14031;DHT22;7090;49.436;8.490;2023-03-20T18:14:37;12.20;1.00
14031;DHT22;7090;49.436;8.490;2023-03-20T18:17:03;12.20;1.00
14031;DHT22;7090;49.436;8.490;2023-03-20T18:19:29;12.20;99.90
14031;DHT22;7090;49.436;8.490;2023-03-20T18:21:55;12.20;1.00
14031;DHT22;7090;49.436;8.490;2023-03-20T18:24:21;12.20;99.90
14031;DHT22;7090;49.436;8.490;2023-03-20T18:26:48;12.20;1.00
14031;DHT22;7090;49.436;8.490;2023-03-20T18:29:14;12.10;99.90
14031;DHT22;7090;49.436;8.490;2023-03-20T18:31:39;12.10;99.90
14031;DHT22;7090;49.436;8.490;2023-03-20T18:34:05;12.10;1.00
14031;DHT22;7090;49.436;8.490;2023-03-20T18:36:31;12.10;99.90
14031;DHT22;7090;49.436;8.490;2023-03-20T18:38:57;12.00;1.00
14031;DHT22;7090;49.436;8.490;2023-03-20T18:41:23;12.00;1.00
14031;DHT22;7090;49.436;8.490;2023-03-20T18:43:49;12.00;1.00
14031;DHT22;7090;49.436;8.490;2023-03-20T18:46:20;12.00;1.00
14031;DHT22;7090;49.436;8.490;2023-03-20T18:48:47;12.00;1.00
14031;DHT22;7090;49.436;8.490;2023-03-20T18:51:13;11.90;99.90
14031;DHT22;7090;49.436;8.490;2023-03-20T18:57:01;12.00;99.90
14031;DHT22;7090;49.436;8.490;2023-03-20T18:59:27;11.90;27.60
14031;DHT22;7090;49.436;8.490;2023-03-20T19:01:52;12.00;1.00
14031;DHT22;7090;49.436;8.490;2023-03-20T19:04:18;11.80;2.30
14031;DHT22;7090;49.436;8.490;2023-03-20T19:06:44;11.80;1.00
14031;DHT22;7090;49.436;8.490;2023-03-20T19:09:10;11.80;1.00
14031;DHT22;7090;49.436;8.490;2023-03-20T19:11:37;11.80;99.90
14031;DHT22;7090;49.436;8.490;2023-03-20T19:14:02;11.80;99.90
14031;DHT22;7090;49.436;8.490;2023-03-20T19:16:30;11.80;7.20
14031;DHT22;7090;49.436;8.490;2023-03-20T19:18:58;11.80;1.00
14031;DHT22;7090;49.436;8.490;2023-03-20T19:21:26;11.70;1.00
14031;DHT22;7090;49.436;8.490;2023-03-20T19:23:54;11.70;1.00
14031;DHT22;7090;49.436;8.490;2023-03-20T19:26:21;11.80;27.50
14031;DHT22;7090;49.436;8.490;2023-03-20T19:28:49;11.80;99.90
14031;DHT22;7090;49.436;8.490;2023-03-20T19:31:15;11.80;49.70